CDT,Max TemperatureF,Mean TemperatureF,Min TemperatureF,Max Dew PointF,MeanDew PointF,Min DewpointF,Max Humidity, Mean Humidity, Min Humidity, Max Sea Level PressureIn, Mean Sea Level PressureIn, Min Sea Level PressureIn, Max VisibilityMiles, Mean VisibilityMiles, Min VisibilityMiles, Max Wind SpeedMPH, Mean Wind SpeedMPH, Max Gust SpeedMPH,PrecipitationIn, CloudCover, Events, WindDirDegrees
2013-4-1,30,24,19,12,11,8,63,53,42,30.20,30.14,29.99,10,10,10,17,11,28,0.00,0,,297
2013-4-2,35,26,17,13,12,10,74,54,39,30.36,30.29,30.22,10,10,10,17,7,22,0.00,0,,287
2013-4-3,42,28,15,18,12,6,85,51,28,30.50,30.38,30.24,10,10,10,13,2,18,0.00,0,,186
2013-4-4,50,39,28,31,23,17,61,52,42,30.21,30.08,30.00,10,10,10,15,9,23,0.00,1,,267
2013-4-5,44,34,25,29,21,15,93,62,31,30.29,30.19,30.12,10,7,1,10,6,18,0.07,4,Snow,88
2013-4-6,51,40,30,45,32,26,97,81,50,30.12,29.80,29.49,10,8,1,18,10,25,0.17,7,Rain-Snow,133
2013-4-7,46,40,34,33,30,28,86,74,58,29.99,29.88,29.66,10,10,10,17,10,25,0.00,5,,299
2013-4-8,39,37,35,36,33,29,93,86,75,30.06,29.86,29.75,10,7,2,10,7,,0.04,8,Rain,57
2013-4-9,39,36,33,37,33,25,100,87,72,30.10,30.04,29.97,10,7,2,16,8,24,0.84,8,Rain,54
2013-4-10,36,33,30,31,28,20,89,83,54,30.17,30.07,29.98,10,8,1,18,11,26,0.78,8,Rain-Snow,55
2013-4-11,34,32,30,30,27,19,93,82,54,29.98,29.77,29.67,10,4,1,26,16,37,0.26,8,Rain-Snow,76
2013-4-12,35,32,30,30,28,26,93,85,75,29.79,29.65,29.58,10,5,1,13,8,21,0.05,8,Snow,28
2013-4-13,37,31,26,28,26,22,93,80,64,30.02,29.84,29.75,10,7,2,17,8,22,0.03,8,Snow,283
2013-4-14,37,30,24,34,27,21,93,84,72,30.04,29.88,29.66,10,6,0,22,8,32,0.55,7,Fog-Rain-Snow,93
2013-4-15,52,42,34,39,32,25,100,80,39,29.98,29.73,29.59,10,6,0,23,7,32,0.17,5,Fog-Rain,244
2013-4-16,48,39,30,28,26,24,79,64,46,30.36,30.18,29.97,10,10,10,14,7,21,0.00,4,,286
2013-4-17,39,32,28,34,30,24,93,79,68,30.38,30.18,29.93,10,9,4,17,10,23,0.13,6,Rain,72
2013-4-18,41,38,35,39,36,35,100,93,86,29.88,29.52,29.28,10,4,1,16,9,23,0.30,8,Rain,67
2013-4-19,37,32,26,36,25,16,100,77,59,29.95,29.49,29.25,10,6,0,28,15,37,0.01,7,Snow,288
2013-4-20,42,31,21,17,12,8,78,49,26,30.40,30.24,29.98,10,10,10,14,7,18,0.00,0,,334
2013-4-21,46,37,28,35,29,13,93,80,51,30.50,30.39,30.21,10,5,0,14,7,22,0.11,7,Fog-Rain-Snow,142
2013-4-22,48,46,44,45,41,36,93,84,68,30.21,30.14,30.00,10,8,4,9,6,,0.18,8,Rain,146
2013-4-23,48,39,26,45,32,22,93,78,59,30.06,29.98,29.89,10,9,2,17,7,25,0.07,7,Rain,308
2013-4-24,52,38,24,34,23,16,88,57,29,30.06,30.01,29.92,10,10,10,18,5,29,0.01,3,Rain,247
2013-4-25,50,41,30,34,29,23,93,72,36,30.27,30.11,29.94,10,9,5,13,8,22,0.03,5,Rain,275
2013-4-26,72,54,36,45,34,23,73,49,27,30.26,30.16,30.08,10,10,9,18,8,31,0.05,4,Rain,190
2013-4-27,73,60,48,47,44,40,86,60,34,30.19,30.12,30.02,10,10,10,14,8,21,0.00,0,,200
2013-4-28,73,55,37,43,39,36,93,56,26,30.01,29.89,29.78,10,9,2,14,3,20,0.00,0,,195
2013-4-29,73,62,52,53,49,40,89,63,48,29.81,29.76,29.68,10,10,7,18,5,26,0.01,6,Rain,181
2013-4-30,86,70,57,55,52,41,81,53,30,29.88,29.68,29.61,10,10,10,24,11,32,0.00,2,,210